METAR Data
IDs: Format: Raw Decoded Include TAF

Data at: 2006 UTC 25 Oct 2021

FAOR 252000Z 04012KT 9999 -SHRA BKN005 BKN012 FEW040TCU 13/12 Q1026 NOSIG